sensor_id;sensor_type;location;lat;lon;timestamp;temperature;humidity
3360;DHT22;1693;49.602;11.046;2023-05-10T03:37:14;13.20;99.90
3360;DHT22;1693;49.602;11.046;2023-05-10T03:39:45;13.30;99.90
3360;DHT22;1693;49.602;11.046;2023-05-10T03:42:14;13.30;99.90
3360;DHT22;1693;49.602;11.046;2023-05-10T03:44:45;13.40;99.90
3360;DHT22;1693;49.602;11.046;2023-05-10T03:47:17;13.40;99.90
3360;DHT22;1693;49.602;11.046;2023-05-10T03:49:48;13.40;99.90
3360;DHT22;1693;49.602;11.046;2023-05-10T03:52:19;13.50;99.90
3360;DHT22;1693;49.602;11.046;2023-05-10T03:54:50;13.50;99.90
3360;DHT22;1693;49.602;11.046;2023-05-10T03:57:21;13.50;99.90
3360;DHT22;1693;49.602;11.046;2023-05-10T06:49:36;15.50;99.90
3360;DHT22;1693;49.602;11.046;2023-05-10T06:52:10;15.60;99.90
3360;DHT22;1693;49.602;11.046;2023-05-10T06:54:41;15.70;99.90
3360;DHT22;1693;49.602;11.046;2023-05-10T06:57:10;15.70;99.90
3360;DHT22;1693;49.602;11.046;2023-05-10T06:59:39;15.80;99.90
3360;DHT22;1693;49.602;11.046;2023-05-10T07:02:08;15.90;99.90
3360;DHT22;1693;49.602;11.046;2023-05-10T07:04:43;15.80;99.90
3360;DHT22;1693;49.602;11.046;2023-05-10T07:07:19;16.00;99.90
3360;DHT22;1693;49.602;11.046;2023-05-10T07:09:51;16.10;99.90
3360;DHT22;1693;49.602;11.046;2023-05-10T07:12:23;16.30;99.90
3360;DHT22;1693;49.602;11.046;2023-05-10T07:14:53;16.40;99.90
3360;DHT22;1693;49.602;11.046;2023-05-10T07:17:26;16.40;99.90
3360;DHT22;1693;49.602;11.046;2023-05-10T07:19:56;16.30;99.90
3360;DHT22;1693;49.602;11.046;2023-05-10T07:22:28;16.30;99.90
3360;DHT22;1693;49.602;11.046;2023-05-10T07:25:03;16.30;99.90
3360;DHT22;1693;49.602;11.046;2023-05-10T07:27:34;16.30;99.90
3360;DHT22;1693;49.602;11.046;2023-05-10T07:30:07;16.40;99.90
3360;DHT22;1693;49.602;11.046;2023-05-10T07:32:37;16.70;99.90
3360;DHT22;1693;49.602;11.046;2023-05-10T07:35:07;16.90;99.90
3360;DHT22;1693;49.602;11.046;2023-05-10T07:37:44;17.10;99.90
3360;DHT22;1693;49.602;11.046;2023-05-10T07:40:12;17.00;99.90
3360;DHT22;1693;49.602;11.046;2023-05-10T07:42:47;16.80;99.90
3360;DHT22;1693;49.602;11.046;2023-05-10T07:45:17;16.60;99.90
3360;DHT22;1693;49.602;11.046;2023-05-10T07:47:48;16.80;99.90
3360;DHT22;1693;49.602;11.046;2023-05-10T07:50:27;16.60;99.90
3360;DHT22;1693;49.602;11.046;2023-05-10T07:52:58;16.60;99.90
3360;DHT22;1693;49.602;11.046;2023-05-10T07:55:27;16.30;99.90
3360;DHT22;1693;49.602;11.046;2023-05-10T07:57:59;16.00;99.90
3360;DHT22;1693;49.602;11.046;2023-05-10T08:00:39;16.00;99.90
3360;DHT22;1693;49.602;11.046;2023-05-10T08:03:17;15.90;99.90
3360;DHT22;1693;49.602;11.046;2023-05-10T08:05:49;15.80;99.90
3360;DHT22;1693;49.602;11.046;2023-05-10T08:08:26;15.70;99.90
3360;DHT22;1693;49.602;11.046;2023-05-10T08:10:58;15.60;99.90
3360;DHT22;1693;49.602;11.046;2023-05-10T08:13:27;15.70;99.90
3360;DHT22;1693;49.602;11.046;2023-05-10T08:15:54;15.70;99.90
3360;DHT22;1693;49.602;11.046;2023-05-10T08:18:24;15.80;99.90
3360;DHT22;1693;49.602;11.046;2023-05-10T08:20:55;15.90;99.90
3360;DHT22;1693;49.602;11.046;2023-05-10T08:23:32;16.00;99.90
3360;DHT22;1693;49.602;11.046;2023-05-10T08:26:10;15.80;99.90
3360;DHT22;1693;49.602;11.046;2023-05-10T08:28:55;16.00;99.90
3360;DHT22;1693;49.602;11.046;2023-05-10T08:31:31;16.10;99.90
3360;DHT22;1693;49.602;11.046;2023-05-10T08:34:00;16.40;99.90
3360;DHT22;1693;49.602;11.046;2023-05-10T08:36:32;16.50;99.90
3360;DHT22;1693;49.602;11.046;2023-05-10T08:39:06;16.10;99.90
3360;DHT22;1693;49.602;11.046;2023-05-10T08:41:35;16.20;99.90
3360;DHT22;1693;49.602;11.046;2023-05-10T08:44:09;16.20;99.90
3360;DHT22;1693;49.602;11.046;2023-05-10T08:46:41;16.30;99.90
3360;DHT22;1693;49.602;11.046;2023-05-10T08:49:16;16.30;99.90
3360;DHT22;1693;49.602;11.046;2023-05-10T08:51:51;16.20;99.90
3360;DHT22;1693;49.602;11.046;2023-05-10T08:54:21;16.00;99.90
3360;DHT22;1693;49.602;11.046;2023-05-10T08:56:59;15.80;99.90
3360;DHT22;1693;49.602;11.046;2023-05-10T08:59:31;15.80;99.90
3360;DHT22;1693;49.602;11.046;2023-05-10T09:02:06;15.80;99.90
3360;DHT22;1693;49.602;11.046;2023-05-10T09:04:35;15.70;99.90
3360;DHT22;1693;49.602;11.046;2023-05-10T09:07:05;15.70;99.90
3360;DHT22;1693;49.602;11.046;2023-05-10T09:09:39;15.70;99.90
3360;DHT22;1693;49.602;11.046;2023-05-10T09:12:13;15.40;99.90
3360;DHT22;1693;49.602;11.046;2023-05-10T09:14:44;15.30;99.90
3360;DHT22;1693;49.602;11.046;2023-05-10T09:17:22;15.20;99.90
3360;DHT22;1693;49.602;11.046;2023-05-10T09:20:01;15.20;99.90
3360;DHT22;1693;49.602;11.046;2023-05-10T09:22:42;15.40;99.90
3360;DHT22;1693;49.602;11.046;2023-05-10T09:25:22;15.70;99.90
3360;DHT22;1693;49.602;11.046;2023-05-10T09:27:53;16.30;99.90
3360;DHT22;1693;49.602;11.046;2023-05-10T09:30:26;16.70;99.90
3360;DHT22;1693;49.602;11.046;2023-05-10T09:32:55;17.40;99.90
3360;DHT22;1693;49.602;11.046;2023-05-10T09:35:26;18.10;99.90
3360;DHT22;1693;49.602;11.046;2023-05-10T09:37:57;18.20;99.90
3360;DHT22;1693;49.602;11.046;2023-05-10T09:40:27;18.80;99.90
3360;DHT22;1693;49.602;11.046;2023-05-10T09:43:00;19.40;99.90
3360;DHT22;1693;49.602;11.046;2023-05-10T09:45:32;18.90;99.90
3360;DHT22;1693;49.602;11.046;2023-05-10T09:48:03;19.60;99.90
3360;DHT22;1693;49.602;11.046;2023-05-10T09:50:32;18.40;99.90
3360;DHT22;1693;49.602;11.046;2023-05-10T09:53:03;18.00;99.90
3360;DHT22;1693;49.602;11.046;2023-05-10T09:55:42;18.10;99.90
3360;DHT22;1693;49.602;11.046;2023-05-10T09:58:13;18.10;99.90
3360;DHT22;1693;49.602;11.046;2023-05-10T10:00:42;18.50;99.90
3360;DHT22;1693;49.602;11.046;2023-05-10T10:03:13;18.30;99.90
3360;DHT22;1693;49.602;11.046;2023-05-10T10:05:43;18.40;99.90
3360;DHT22;1693;49.602;11.046;2023-05-10T10:08:14;18.50;99.90
3360;DHT22;1693;49.602;11.046;2023-05-10T10:10:45;18.60;99.90
3360;DHT22;1693;49.602;11.046;2023-05-10T10:13:15;18.80;99.90
3360;DHT22;1693;49.602;11.046;2023-05-10T10:15:48;19.10;99.90
3360;DHT22;1693;49.602;11.046;2023-05-10T10:18:19;19.00;99.90
3360;DHT22;1693;49.602;11.046;2023-05-10T10:20:51;19.30;99.90
3360;DHT22;1693;49.602;11.046;2023-05-10T10:23:20;19.40;99.90
3360;DHT22;1693;49.602;11.046;2023-05-10T10:25:57;19.50;99.90
3360;DHT22;1693;49.602;11.046;2023-05-10T10:28:34;19.70;99.90
3360;DHT22;1693;49.602;11.046;2023-05-10T10:31:15;19.70;99.90
3360;DHT22;1693;49.602;11.046;2023-05-10T10:33:56;19.10;99.90
3360;DHT22;1693;49.602;11.046;2023-05-10T10:36:32;19.00;99.90
3360;DHT22;1693;49.602;11.046;2023-05-10T10:39:09;19.50;99.90
3360;DHT22;1693;49.602;11.046;2023-05-10T10:41:54;19.20;99.90
3360;DHT22;1693;49.602;11.046;2023-05-10T10:44:40;19.50;99.90
3360;DHT22;1693;49.602;11.046;2023-05-10T10:47:23;19.50;99.90
3360;DHT22;1693;49.602;11.046;2023-05-10T10:53:33;20.00;99.90
3360;DHT22;1693;49.602;11.046;2023-05-10T10:56:08;20.00;99.90
3360;DHT22;1693;49.602;11.046;2023-05-10T10:58:49;19.80;99.90
3360;DHT22;1693;49.602;11.046;2023-05-10T11:01:23;19.70;99.90
3360;DHT22;1693;49.602;11.046;2023-05-10T11:04:18;19.80;99.90
3360;DHT22;1693;49.602;11.046;2023-05-10T11:06:47;19.70;99.90
3360;DHT22;1693;49.602;11.046;2023-05-10T11:09:14;19.50;99.90
3360;DHT22;1693;49.602;11.046;2023-05-10T11:11:53;19.50;99.90
3360;DHT22;1693;49.602;11.046;2023-05-10T11:14:27;19.50;99.90
3360;DHT22;1693;49.602;11.046;2023-05-10T11:17:01;19.70;99.90
3360;DHT22;1693;49.602;11.046;2023-05-10T11:20:07;19.20;99.90
3360;DHT22;1693;49.602;11.046;2023-05-10T11:22:54;19.40;99.90
3360;DHT22;1693;49.602;11.046;2023-05-10T11:25:26;19.30;99.90
3360;DHT22;1693;49.602;11.046;2023-05-10T11:27:58;19.40;99.90
3360;DHT22;1693;49.602;11.046;2023-05-10T11:30:44;19.40;99.90
3360;DHT22;1693;49.602;11.046;2023-05-10T11:33:17;19.40;99.90
3360;DHT22;1693;49.602;11.046;2023-05-10T11:35:51;19.10;99.90
3360;DHT22;1693;49.602;11.046;2023-05-10T11:38:23;18.80;99.90
3360;DHT22;1693;49.602;11.046;2023-05-10T11:40:53;18.70;99.90
3360;DHT22;1693;49.602;11.046;2023-05-10T11:43:29;18.40;99.90
3360;DHT22;1693;49.602;11.046;2023-05-10T11:46:05;18.20;99.90
3360;DHT22;1693;49.602;11.046;2023-05-10T11:48:38;18.50;99.90
3360;DHT22;1693;49.602;11.046;2023-05-10T11:51:10;18.60;99.90
3360;DHT22;1693;49.602;11.046;2023-05-10T11:53:42;18.40;99.90
3360;DHT22;1693;49.602;11.046;2023-05-10T11:56:12;18.70;99.90
3360;DHT22;1693;49.602;11.046;2023-05-10T11:58:40;18.80;99.90
3360;DHT22;1693;49.602;11.046;2023-05-10T12:01:13;18.80;99.90
3360;DHT22;1693;49.602;11.046;2023-05-10T12:03:41;19.10;99.90
3360;DHT22;1693;49.602;11.046;2023-05-10T12:06:14;19.50;99.90
3360;DHT22;1693;49.602;11.046;2023-05-10T12:08:46;19.90;99.90
3360;DHT22;1693;49.602;11.046;2023-05-10T12:11:19;20.50;99.90
3360;DHT22;1693;49.602;11.046;2023-05-10T12:13:47;20.80;99.90
3360;DHT22;1693;49.602;11.046;2023-05-10T12:16:25;20.80;99.90
3360;DHT22;1693;49.602;11.046;2023-05-10T12:18:59;20.80;99.90
3360;DHT22;1693;49.602;11.046;2023-05-10T12:21:31;21.10;99.90
3360;DHT22;1693;49.602;11.046;2023-05-10T12:24:02;21.00;99.90
3360;DHT22;1693;49.602;11.046;2023-05-10T12:26:32;21.00;99.90
3360;DHT22;1693;49.602;11.046;2023-05-10T12:29:32;21.00;99.90
3360;DHT22;1693;49.602;11.046;2023-05-10T12:32:06;20.70;99.90
3360;DHT22;1693;49.602;11.046;2023-05-10T12:34:38;20.70;99.90
3360;DHT22;1693;49.602;11.046;2023-05-10T12:37:08;20.50;99.90
3360;DHT22;1693;49.602;11.046;2023-05-10T12:39:45;19.90;99.90
3360;DHT22;1693;49.602;11.046;2023-05-10T12:42:15;20.00;99.90
3360;DHT22;1693;49.602;11.046;2023-05-10T12:44:49;20.10;99.90
3360;DHT22;1693;49.602;11.046;2023-05-10T12:47:21;20.00;99.90
3360;DHT22;1693;49.602;11.046;2023-05-10T12:49:48;20.30;99.90
3360;DHT22;1693;49.602;11.046;2023-05-10T12:52:20;20.40;99.90
3360;DHT22;1693;49.602;11.046;2023-05-10T12:54:49;20.00;99.90
3360;DHT22;1693;49.602;11.046;2023-05-10T12:57:19;20.00;99.90
3360;DHT22;1693;49.602;11.046;2023-05-10T13:02:22;19.90;99.90
3360;DHT22;1693;49.602;11.046;2023-05-10T13:04:54;20.00;99.90
3360;DHT22;1693;49.602;11.046;2023-05-10T13:07:25;20.00;99.90
3360;DHT22;1693;49.602;11.046;2023-05-10T13:09:55;19.80;99.90
3360;DHT22;1693;49.602;11.046;2023-05-10T13:12:27;19.80;99.90
3360;DHT22;1693;49.602;11.046;2023-05-10T13:14:56;19.50;99.90
3360;DHT22;1693;49.602;11.046;2023-05-10T13:17:31;19.20;99.90
3360;DHT22;1693;49.602;11.046;2023-05-10T13:20:03;18.90;99.90
3360;DHT22;1693;49.602;11.046;2023-05-10T13:22:31;18.60;99.90
3360;DHT22;1693;49.602;11.046;2023-05-10T13:24:58;18.30;99.90
3360;DHT22;1693;49.602;11.046;2023-05-10T13:27:27;18.20;99.90
3360;DHT22;1693;49.602;11.046;2023-05-10T13:29:56;18.10;99.90
3360;DHT22;1693;49.602;11.046;2023-05-10T13:32:27;17.80;99.90
3360;DHT22;1693;49.602;11.046;2023-05-10T13:34:56;17.50;99.90
3360;DHT22;1693;49.602;11.046;2023-05-10T13:37:26;17.10;99.90
3360;DHT22;1693;49.602;11.046;2023-05-10T13:39:57;16.80;99.90
3360;DHT22;1693;49.602;11.046;2023-05-10T13:42:26;16.20;99.90
3360;DHT22;1693;49.602;11.046;2023-05-10T13:44:58;15.90;99.90
3360;DHT22;1693;49.602;11.046;2023-05-10T13:47:31;15.80;99.90
3360;DHT22;1693;49.602;11.046;2023-05-10T13:50:02;15.80;99.90
3360;DHT22;1693;49.602;11.046;2023-05-10T13:52:34;15.70;99.90
3360;DHT22;1693;49.602;11.046;2023-05-10T13:55:05;15.90;99.90
3360;DHT22;1693;49.602;11.046;2023-05-10T13:57:34;15.80;99.90
3360;DHT22;1693;49.602;11.046;2023-05-10T14:00:05;16.00;99.90
3360;DHT22;1693;49.602;11.046;2023-05-10T14:02:38;16.10;99.90
3360;DHT22;1693;49.602;11.046;2023-05-10T14:05:09;16.10;99.90
3360;DHT22;1693;49.602;11.046;2023-05-10T14:07:39;16.00;99.90
3360;DHT22;1693;49.602;11.046;2023-05-10T14:10:11;16.10;99.90
3360;DHT22;1693;49.602;11.046;2023-05-10T14:12:42;16.10;99.90
3360;DHT22;1693;49.602;11.046;2023-05-10T14:15:11;16.00;99.90
3360;DHT22;1693;49.602;11.046;2023-05-10T14:17:43;16.10;99.90
3360;DHT22;1693;49.602;11.046;2023-05-10T14:20:14;16.00;99.90
3360;DHT22;1693;49.602;11.046;2023-05-10T14:22:56;15.90;99.90
3360;DHT22;1693;49.602;11.046;2023-05-10T14:25:36;14.90;99.90
3360;DHT22;1693;49.602;11.046;2023-05-10T14:28:05;14.40;99.90
3360;DHT22;1693;49.602;11.046;2023-05-10T14:30:35;14.20;99.90
3360;DHT22;1693;49.602;11.046;2023-05-10T14:33:17;14.20;99.90
3360;DHT22;1693;49.602;11.046;2023-05-10T14:35:49;14.20;99.90
3360;DHT22;1693;49.602;11.046;2023-05-10T14:38:23;14.30;99.90
3360;DHT22;1693;49.602;11.046;2023-05-10T14:40:53;14.40;99.90
3360;DHT22;1693;49.602;11.046;2023-05-10T14:43:20;14.40;99.90
3360;DHT22;1693;49.602;11.046;2023-05-10T14:45:48;14.30;99.90
3360;DHT22;1693;49.602;11.046;2023-05-10T14:48:34;14.40;99.90
3360;DHT22;1693;49.602;11.046;2023-05-10T14:51:19;14.40;99.90
3360;DHT22;1693;49.602;11.046;2023-05-10T14:53:49;14.50;99.90
3360;DHT22;1693;49.602;11.046;2023-05-10T14:56:25;14.70;99.90
3360;DHT22;1693;49.602;11.046;2023-05-10T14:58:55;14.90;99.90
3360;DHT22;1693;49.602;11.046;2023-05-10T15:01:24;15.10;99.90
3360;DHT22;1693;49.602;11.046;2023-05-10T15:03:55;15.30;99.90
3360;DHT22;1693;49.602;11.046;2023-05-10T15:06:32;15.30;99.90
3360;DHT22;1693;49.602;11.046;2023-05-10T15:09:05;15.30;99.90
3360;DHT22;1693;49.602;11.046;2023-05-10T15:11:39;15.10;99.90
3360;DHT22;1693;49.602;11.046;2023-05-10T15:14:10;14.90;99.90
3360;DHT22;1693;49.602;11.046;2023-05-10T15:16:37;14.70;99.90
3360;DHT22;1693;49.602;11.046;2023-05-10T15:19:10;14.40;99.90
3360;DHT22;1693;49.602;11.046;2023-05-10T15:21:38;14.10;99.90
3360;DHT22;1693;49.602;11.046;2023-05-10T15:24:10;13.90;99.90
3360;DHT22;1693;49.602;11.046;2023-05-10T15:26:43;13.80;99.90
3360;DHT22;1693;49.602;11.046;2023-05-10T15:29:12;13.60;99.90
3360;DHT22;1693;49.602;11.046;2023-05-10T15:31:49;13.50;99.90
3360;DHT22;1693;49.602;11.046;2023-05-10T15:34:22;13.50;99.90
3360;DHT22;1693;49.602;11.046;2023-05-10T15:36:52;13.50;99.90
3360;DHT22;1693;49.602;11.046;2023-05-10T15:39:21;13.50;99.90
3360;DHT22;1693;49.602;11.046;2023-05-10T15:41:49;13.40;99.90
3360;DHT22;1693;49.602;11.046;2023-05-10T15:44:24;13.30;99.90
3360;DHT22;1693;49.602;11.046;2023-05-10T15:46:51;13.30;99.90
3360;DHT22;1693;49.602;11.046;2023-05-10T15:49:28;13.30;99.90
3360;DHT22;1693;49.602;11.046;2023-05-10T15:52:00;13.30;99.90
3360;DHT22;1693;49.602;11.046;2023-05-10T15:54:32;13.30;99.90
3360;DHT22;1693;49.602;11.046;2023-05-10T15:57:05;13.30;99.90
3360;DHT22;1693;49.602;11.046;2023-05-10T15:59:37;13.30;99.90
3360;DHT22;1693;49.602;11.046;2023-05-10T16:02:10;13.40;99.90
3360;DHT22;1693;49.602;11.046;2023-05-10T16:04:45;13.40;99.90
3360;DHT22;1693;49.602;11.046;2023-05-10T16:07:20;13.50;99.90
3360;DHT22;1693;49.602;11.046;2023-05-10T16:09:58;13.70;99.90
3360;DHT22;1693;49.602;11.046;2023-05-10T16:12:31;13.80;99.90
3360;DHT22;1693;49.602;11.046;2023-05-10T16:15:05;13.90;99.90
3360;DHT22;1693;49.602;11.046;2023-05-10T16:17:36;14.00;99.90
3360;DHT22;1693;49.602;11.046;2023-05-10T16:20:11;13.90;99.90
3360;DHT22;1693;49.602;11.046;2023-05-10T16:22:56;13.90;99.90
3360;DHT22;1693;49.602;11.046;2023-05-10T16:25:26;14.00;99.90
3360;DHT22;1693;49.602;11.046;2023-05-10T16:28:06;14.10;99.90
3360;DHT22;1693;49.602;11.046;2023-05-10T16:30:39;14.00;99.90
3360;DHT22;1693;49.602;11.046;2023-05-10T16:33:27;14.10;99.90
3360;DHT22;1693;49.602;11.046;2023-05-10T16:36:00;13.90;99.90
3360;DHT22;1693;49.602;11.046;2023-05-10T16:38:32;14.00;99.90
3360;DHT22;1693;49.602;11.046;2023-05-10T16:41:04;13.90;99.90
3360;DHT22;1693;49.602;11.046;2023-05-10T16:43:36;14.00;99.90
3360;DHT22;1693;49.602;11.046;2023-05-10T16:46:09;14.00;99.90
3360;DHT22;1693;49.602;11.046;2023-05-10T16:48:48;13.90;99.90
3360;DHT22;1693;49.602;11.046;2023-05-10T16:51:28;14.00;99.90
3360;DHT22;1693;49.602;11.046;2023-05-10T16:57:33;13.90;99.90
3360;DHT22;1693;49.602;11.046;2023-05-10T17:00:12;13.80;99.90
3360;DHT22;1693;49.602;11.046;2023-05-10T17:02:43;13.70;99.90
3360;DHT22;1693;49.602;11.046;2023-05-10T17:05:10;13.70;99.90
3360;DHT22;1693;49.602;11.046;2023-05-10T17:07:45;13.70;99.90
3360;DHT22;1693;49.602;11.046;2023-05-10T17:10:16;13.70;99.90
3360;DHT22;1693;49.602;11.046;2023-05-10T17:12:46;13.70;99.90
3360;DHT22;1693;49.602;11.046;2023-05-10T17:15:19;13.70;99.90
3360;DHT22;1693;49.602;11.046;2023-05-10T17:17:47;13.60;99.90
3360;DHT22;1693;49.602;11.046;2023-05-10T17:20:18;13.60;99.90
3360;DHT22;1693;49.602;11.046;2023-05-10T17:23:03;13.50;99.90
3360;DHT22;1693;49.602;11.046;2023-05-10T17:25:34;13.50;99.90
3360;DHT22;1693;49.602;11.046;2023-05-10T17:28:04;13.50;99.90
3360;DHT22;1693;49.602;11.046;2023-05-10T17:30:38;13.50;99.90
3360;DHT22;1693;49.602;11.046;2023-05-10T17:33:12;13.40;99.90
3360;DHT22;1693;49.602;11.046;2023-05-10T17:35:46;13.30;99.90
3360;DHT22;1693;49.602;11.046;2023-05-10T17:38:18;13.30;99.90
3360;DHT22;1693;49.602;11.046;2023-05-10T17:40:50;13.20;99.90
3360;DHT22;1693;49.602;11.046;2023-05-10T17:43:18;13.20;99.90
3360;DHT22;1693;49.602;11.046;2023-05-10T17:45:50;13.20;99.90
3360;DHT22;1693;49.602;11.046;2023-05-10T17:48:20;13.10;99.90
3360;DHT22;1693;49.602;11.046;2023-05-10T17:50:52;13.10;99.90
3360;DHT22;1693;49.602;11.046;2023-05-10T17:53:25;13.00;99.90
3360;DHT22;1693;49.602;11.046;2023-05-10T17:55:52;13.00;99.90
3360;DHT22;1693;49.602;11.046;2023-05-10T17:58:24;13.00;99.90
3360;DHT22;1693;49.602;11.046;2023-05-10T18:00:53;13.00;99.90
3360;DHT22;1693;49.602;11.046;2023-05-10T18:03:23;13.10;99.90
3360;DHT22;1693;49.602;11.046;2023-05-10T18:05:51;13.00;99.90
3360;DHT22;1693;49.602;11.046;2023-05-10T18:08:23;12.90;99.90
3360;DHT22;1693;49.602;11.046;2023-05-10T18:10:55;12.90;99.90
3360;DHT22;1693;49.602;11.046;2023-05-10T18:13:22;12.80;99.90
3360;DHT22;1693;49.602;11.046;2023-05-10T18:15:53;12.80;99.90
3360;DHT22;1693;49.602;11.046;2023-05-10T18:18:26;12.80;99.90
3360;DHT22;1693;49.602;11.046;2023-05-10T18:20:56;12.70;99.90
3360;DHT22;1693;49.602;11.046;2023-05-10T18:23:30;12.70;99.90
3360;DHT22;1693;49.602;11.046;2023-05-10T18:26:07;12.70;99.90
3360;DHT22;1693;49.602;11.046;2023-05-10T18:28:35;12.70;99.90
3360;DHT22;1693;49.602;11.046;2023-05-10T18:31:06;12.70;99.90
3360;DHT22;1693;49.602;11.046;2023-05-10T18:33:38;12.70;99.90
3360;DHT22;1693;49.602;11.046;2023-05-10T18:36:06;12.70;99.90
3360;DHT22;1693;49.602;11.046;2023-05-10T18:38:38;12.70;99.90
3360;DHT22;1693;49.602;11.046;2023-05-10T18:41:07;12.70;99.90
3360;DHT22;1693;49.602;11.046;2023-05-10T18:43:40;12.70;99.90
3360;DHT22;1693;49.602;11.046;2023-05-10T18:46:10;12.70;99.90
3360;DHT22;1693;49.602;11.046;2023-05-10T18:48:37;12.80;99.90
3360;DHT22;1693;49.602;11.046;2023-05-10T18:51:11;12.80;99.90
3360;DHT22;1693;49.602;11.046;2023-05-10T18:53:44;12.70;99.90
